Time;durP1;ratioP1;P1;durP2;ratioP2;P2;SDS_P1;SDS_P2;PMS_P1;PMS_P2;Temp;Humidity;BMP_temperature;BMP_pressure;BME280_temperature;BME280_humidity;BME280_pressure;Samples;Min_cycle;Max_cycle;Signal;HPM_P1;HPM_P2
2021/04/07 00:01:44;;;;;;;;;14.50;12.25;;;;;;;;3724985;38;18377;-51
2021/04/07 00:04:10;;;;;;;;;9.25;9.25;;;;;;;;3724889;37;21477;-51
2021/04/07 00:06:36;;;;;;;;;11.75;11.25;;;;;;;;3724946;37;18389;-51
2021/04/07 00:09:03;;;;;;;;;16.50;13.00;;;;;;;;3724986;37;18349;-51
2021/04/07 00:11:29;;;;;;;;;8.50;7.75;;;;;;;;3724744;38;21402;-51
2021/04/07 00:13:54;;;;;;;;;12.00;12.00;;;;;;;;3724879;38;21313;-50
2021/04/07 00:16:21;;;;;;;;;10.50;10.00;;;;;;;;3725030;37;18357;-51
2021/04/07 00:18:46;;;;;;;;;15.25;10.75;;;;;;;;3724840;38;18343;-50
2021/04/07 00:21:12;;;;;;;;;11.75;11.00;;;;;;;;3724876;38;21305;-51
2021/04/07 00:23:38;;;;;;;;;11.00;9.75;;;;;;;;3724916;38;18367;-51
2021/04/07 00:26:04;;;;;;;;;12.75;8.75;;;;;;;;3724911;37;18338;-52
2021/04/07 00:28:29;;;;;;;;;11.00;9.50;;;;;;;;3724963;38;18331;-52
2021/04/07 00:30:55;;;;;;;;;9.50;8.75;;;;;;;;3724844;38;21423;-51
2021/04/07 00:33:21;;;;;;;;;7.25;7.00;;;;;;;;3724986;37;18343;-51
2021/04/07 00:35:47;;;;;;;;;7.25;7.25;;;;;;;;3724830;37;18342;-51
2021/04/07 00:38:13;;;;;;;;;10.75;8.75;;;;;;;;3724849;38;18333;-51
2021/04/07 00:40:39;;;;;;;;;11.00;10.00;;;;;;;;3724896;38;21321;-51
2021/04/07 00:43:05;;;;;;;;;5.50;5.50;;;;;;;;3724900;37;18331;-50
2021/04/07 00:45:31;;;;;;;;;8.75;8.75;;;;;;;;3724854;37;18313;-51
2021/04/07 00:47:56;;;;;;;;;8.75;7.00;;;;;;;;3724737;37;21319;-52
2021/04/07 00:50:23;;;;;;;;;9.00;8.00;;;;;;;;3724659;38;18295;-53
2021/04/07 00:52:49;;;;;;;;;8.25;7.50;;;;;;;;3724854;37;18301;-52
2021/04/07 00:55:17;;;;;;;;;12.50;8.75;;;;;;;;3724725;37;21207;-52
2021/04/07 00:57:43;;;;;;;;;9.25;8.75;;;;;;;;3724725;38;21270;-51
2021/04/07 01:00:10;;;;;;;;;7.50;7.00;;;;;;;;3724836;37;21249;-51
2021/04/07 01:02:37;;;;;;;;;6.50;6.50;;;;;;;;3724898;37;21197;-51
2021/04/07 01:05:03;;;;;;;;;6.75;5.25;;;;;;;;3724352;38;21212;-51
2021/04/07 01:07:29;;;;;;;;;6.50;5.00;;;;;;;;3724493;37;21197;-51
2021/04/07 01:09:55;;;;;;;;;12.25;8.75;;;;;;;;3724877;37;21193;-51
2021/04/07 01:12:21;;;;;;;;;7.50;6.75;;;;;;;;3724787;37;20965;-51
2021/04/07 01:14:47;;;;;;;;;3.50;2.75;;;;;;;;3724803;38;18290;-51
2021/04/07 01:17:13;;;;;;;;;7.25;5.75;;;;;;;;3724608;38;21172;-53
2021/04/07 01:19:42;;;;;;;;;4.25;3.50;;;;;;;;3724919;38;21271;-52
2021/04/07 01:22:07;;;;;;;;;9.50;8.00;;;;;;;;3724802;38;18275;-52
2021/04/07 01:24:33;;;;;;;;;10.25;8.00;;;;;;;;3724804;38;21177;-52
2021/04/07 01:27:00;;;;;;;;;7.50;7.00;;;;;;;;3724774;38;18275;-50
2021/04/07 01:29:26;;;;;;;;;6.25;6.25;;;;;;;;3724752;38;18280;-50
2021/04/07 01:31:52;;;;;;;;;11.50;8.50;;;;;;;;3724853;38;21168;-51
2021/04/07 01:34:22;;;;;;;;;6.50;6.00;;;;;;;;3724872;37;18251;-51
2021/04/07 01:36:48;;;;;;;;;6.75;6.25;;;;;;;;3724703;37;21176;-51
2021/04/07 01:39:13;;;;;;;;;6.75;6.00;;;;;;;;3724775;38;21410;-51
2021/04/07 01:41:40;;;;;;;;;11.75;6.25;;;;;;;;3724814;37;21266;-51
2021/04/07 01:44:06;;;;;;;;;1.00;1.00;;;;;;;;3724969;38;18223;-51
2021/04/07 01:46:32;;;;;;;;;10.00;8.00;;;;;;;;3724911;38;21168;-52
2021/04/07 01:48:58;;;;;;;;;8.25;6.50;;;;;;;;3724791;38;21200;-53
2021/04/07 01:51:25;;;;;;;;;7.75;7.00;;;;;;;;3724804;37;21148;-54
2021/04/07 01:53:57;;;;;;;;;10.00;7.25;;;;;;;;3724842;37;21121;-51
2021/04/07 01:56:22;;;;;;;;;10.25;7.50;;;;;;;;3724883;38;21129;-52
2021/04/07 01:58:55;;;;;;;;;12.25;12.25;;;;;;;;3724834;37;21213;-51
2021/04/07 02:01:21;;;;;;;;;9.50;7.00;;;;;;;;3724936;37;18209;-50
2021/04/07 02:03:46;;;;;;;;;12.00;11.50;;;;;;;;3724867;37;21176;-51
2021/04/07 02:06:12;;;;;;;;;14.00;10.75;;;;;;;;3724912;37;18214;-52
2021/04/07 02:08:38;;;;;;;;;10.50;9.50;;;;;;;;3724899;37;18209;-51
2021/04/07 02:11:04;;;;;;;;;8.00;8.00;;;;;;;;3724897;37;18203;-51
2021/04/07 02:13:30;;;;;;;;;11.25;11.25;;;;;;;;3725059;37;18198;-51
2021/04/07 02:15:55;;;;;;;;;10.00;7.50;;;;;;;;3724927;38;18193;-51
2021/04/07 02:18:21;;;;;;;;;12.00;11.00;;;;;;;;3724778;38;18213;-51
2021/04/07 02:20:47;;;;;;;;;11.75;10.75;;;;;;;;3724980;38;18198;-52
2021/04/07 02:23:12;;;;;;;;;13.50;11.50;;;;;;;;3725102;37;18198;-52
2021/04/07 02:25:38;;;;;;;;;14.25;10.50;;;;;;;;3724823;38;18195;-51
2021/04/07 02:28:04;;;;;;;;;13.75;12.00;;;;;;;;3724766;38;18187;-50
2021/04/07 02:30:30;;;;;;;;;11.75;10.50;;;;;;;;3724819;37;18190;-52
2021/04/07 02:32:56;;;;;;;;;10.50;10.00;;;;;;;;3724938;37;21177;-51
2021/04/07 02:35:21;;;;;;;;;11.75;9.75;;;;;;;;3724983;38;18165;-52
2021/04/07 02:37:47;;;;;;;;;10.75;8.50;;;;;;;;3724850;38;18178;-52
2021/04/07 02:40:13;;;;;;;;;0.75;0.00;;;;;;;;3724879;37;18159;-51
2021/04/07 02:42:38;;;;;;;;;11.75;11.00;;;;;;;;3724931;37;18180;-50
2021/04/07 02:45:05;;;;;;;;;16.25;14.25;;;;;;;;3724779;38;21159;-52
2021/04/07 02:47:31;;;;;;;;;13.50;10.25;;;;;;;;3724901;37;18151;-52
2021/04/07 02:49:57;;;;;;;;;12.00;11.00;;;;;;;;3724838;38;21229;-53
2021/04/07 02:52:22;;;;;;;;;13.50;12.50;;;;;;;;3724938;38;18137;-52
2021/04/07 02:54:48;;;;;;;;;10.00;8.00;;;;;;;;3724925;38;21144;-51
2021/04/07 02:57:14;;;;;;;;;11.00;9.00;;;;;;;;3724920;37;18146;-51
2021/04/07 02:59:41;;;;;;;;;10.00;8.25;;;;;;;;3724952;38;18146;-51
2021/04/07 03:02:06;;;;;;;;;13.25;12.00;;;;;;;;3724883;37;21142;-52
2021/04/07 03:04:33;;;;;;;;;9.25;9.25;;;;;;;;3724952;38;18154;-51
2021/04/07 03:06:59;;;;;;;;;13.50;11.25;;;;;;;;3724851;38;18137;-51
2021/04/07 03:09:24;;;;;;;;;12.00;10.50;;;;;;;;3724954;38;21123;-51
2021/04/07 03:11:50;;;;;;;;;10.75;10.25;;;;;;;;3724857;37;18132;-52
2021/04/07 03:14:16;;;;;;;;;15.25;12.75;;;;;;;;3724998;37;18137;-51
2021/04/07 03:16:41;;;;;;;;;11.00;11.00;;;;;;;;3724888;37;18124;-52
2021/04/07 03:19:07;;;;;;;;;11.50;10.50;;;;;;;;3725038;38;18125;-51
2021/04/07 03:21:33;;;;;;;;;11.75;11.75;;;;;;;;3724912;37;18127;-51
2021/04/07 03:23:59;;;;;;;;;10.25;8.50;;;;;;;;3724870;38;18107;-51
2021/04/07 03:26:24;;;;;;;;;17.50;14.75;;;;;;;;3724937;37;18092;-51
2021/04/07 03:28:50;;;;;;;;;8.50;8.50;;;;;;;;3724917;37;18097;-54
2021/04/07 03:31:16;;;;;;;;;13.25;12.25;;;;;;;;3724662;38;18088;-51
2021/04/07 03:33:42;;;;;;;;;10.75;10.25;;;;;;;;3724892;37;18075;-51
2021/04/07 03:36:08;;;;;;;;;12.50;11.25;;;;;;;;3724919;38;18075;-51
2021/04/07 03:38:34;;;;;;;;;15.00;9.50;;;;;;;;3725080;37;18083;-51
2021/04/07 03:41:00;;;;;;;;;13.50;11.75;;;;;;;;3725010;37;21078;-51
2021/04/07 03:43:26;;;;;;;;;16.50;14.00;;;;;;;;3724821;37;21089;-51
2021/04/07 03:45:54;;;;;;;;;12.00;11.00;;;;;;;;3725116;38;18083;-51
2021/04/07 03:48:21;;;;;;;;;8.75;8.75;;;;;;;;3724942;37;21055;-51
2021/04/07 03:50:47;;;;;;;;;8.75;7.50;;;;;;;;3725021;37;20974;-51
2021/04/07 03:53:13;;;;;;;;;13.75;10.50;;;;;;;;3724948;38;21028;-55
2021/04/07 03:55:39;;;;;;;;;10.50;10.00;;;;;;;;3725029;38;21052;-51
2021/04/07 03:58:05;;;;;;;;;12.50;11.50;;;;;;;;3724890;37;21057;-51
2021/04/07 04:00:31;;;;;;;;;13.25;12.25;;;;;;;;3724865;37;21040;-53
2021/04/07 04:02:58;;;;;;;;;15.25;11.25;;;;;;;;3724795;37;21138;-51
2021/04/07 04:05:24;;;;;;;;;14.50;13.50;;;;;;;;3724890;38;21067;-51
2021/04/07 04:07:51;;;;;;;;;15.25;13.75;;;;;;;;3724767;38;21016;-54
2021/04/07 04:10:17;;;;;;;;;19.75;10.25;;;;;;;;3724830;37;21116;-53
2021/04/07 04:12:43;;;;;;;;;14.00;11.00;;;;;;;;3724874;37;18024;-50
2021/04/07 04:15:09;;;;;;;;;15.00;11.00;;;;;;;;3724931;37;18047;-52
2021/04/07 04:17:36;;;;;;;;;14.00;12.25;;;;;;;;3725013;38;18011;-52
2021/04/07 04:20:03;;;;;;;;;17.00;14.75;;;;;;;;3724897;37;21028;-51
2021/04/07 04:22:29;;;;;;;;;10.50;9.75;;;;;;;;3725027;37;21078;-51
2021/04/07 04:24:55;;;;;;;;;15.75;12.50;;;;;;;;3724853;37;20982;-53
2021/04/07 04:27:21;;;;;;;;;16.75;13.00;;;;;;;;3724907;38;18034;-52
2021/04/07 04:29:47;;;;;;;;;17.75;15.00;;;;;;;;3724901;38;18009;-51
2021/04/07 04:32:12;;;;;;;;;18.50;13.75;;;;;;;;3724928;37;20998;-54
2021/04/07 04:34:38;;;;;;;;;16.00;13.25;;;;;;;;3725047;38;18004;-54
2021/04/07 04:37:04;;;;;;;;;14.50;12.75;;;;;;;;3724985;37;18015;-54
2021/04/07 04:39:29;;;;;;;;;15.25;12.50;;;;;;;;3724970;37;18023;-53
2021/04/07 04:41:55;;;;;;;;;16.75;12.75;;;;;;;;3725057;37;18003;-53
2021/04/07 04:44:21;;;;;;;;;10.00;8.00;;;;;;;;3725044;37;18009;-52
2021/04/07 04:46:46;;;;;;;;;21.50;17.50;;;;;;;;3724803;37;17998;-53
2021/04/07 04:49:12;;;;;;;;;16.25;16.25;;;;;;;;3724868;37;18005;-52
2021/04/07 04:51:43;;;;;;;;;17.50;16.50;;;;;;;;3724911;38;17985;-52
2021/04/07 04:54:08;;;;;;;;;15.25;13.25;;;;;;;;3725110;38;17971;-52
2021/04/07 04:56:36;;;;;;;;;12.25;12.25;;;;;;;;3725165;37;20793;-52
2021/04/07 04:59:02;;;;;;;;;17.75;14.75;;;;;;;;3725000;37;17968;-52
2021/04/07 05:01:28;;;;;;;;;16.75;13.50;;;;;;;;3724849;37;21072;-52
2021/04/07 05:03:54;;;;;;;;;15.00;13.25;;;;;;;;3725030;38;17967;-52
2021/04/07 05:06:19;;;;;;;;;13.00;12.00;;;;;;;;3724911;37;17950;-53
2021/04/07 05:08:46;;;;;;;;;16.25;16.00;;;;;;;;3724835;38;17959;-53
2021/04/07 05:11:12;;;;;;;;;12.00;11.00;;;;;;;;3725029;37;17960;-52
2021/04/07 05:13:38;;;;;;;;;31.25;17.50;;;;;;;;3724799;37;20994;-52
2021/04/07 05:16:04;;;;;;;;;19.75;15.00;;;;;;;;3724823;37;21105;-52
2021/04/07 05:18:30;;;;;;;;;15.50;13.75;;;;;;;;3724904;38;21051;-52
2021/04/07 05:20:56;;;;;;;;;16.50;16.00;;;;;;;;3724888;38;20986;-51
2021/04/07 05:23:22;;;;;;;;;16.00;12.50;;;;;;;;3724789;38;17942;-52
2021/04/07 05:25:48;;;;;;;;;17.00;16.00;;;;;;;;3724855;38;17926;-53
2021/04/07 05:28:13;;;;;;;;;17.50;14.75;;;;;;;;3724816;37;17930;-52
2021/04/07 05:33:23;;;;;;;;;17.25;16.25;;;;;;;;3724995;38;17885;-53
2021/04/07 05:35:49;;;;;;;;;14.00;13.50;;;;;;;;3724120;37;20997;-52
2021/04/07 05:38:22;;;;;;;;;21.25;15.75;;;;;;;;3724884;37;20935;-54
2021/04/07 05:40:52;;;;;;;;;16.50;16.50;;;;;;;;3724769;38;20992;-53
2021/04/07 05:43:18;;;;;;;;;24.00;20.50;;;;;;;;3724916;37;20973;-55
2021/04/07 05:45:44;;;;;;;;;20.50;19.75;;;;;;;;3724878;37;20986;-54
2021/04/07 05:48:10;;;;;;;;;20.75;18.75;;;;;;;;3724701;37;20961;-56
2021/04/07 05:50:38;;;;;;;;;26.25;23.75;;;;;;;;3724824;38;17923;-55
2021/04/07 05:53:04;;;;;;;;;18.25;16.25;;;;;;;;3724830;38;17916;-52
2021/04/07 05:55:30;;;;;;;;;18.50;15.50;;;;;;;;3724943;38;20938;-53
2021/04/07 05:57:56;;;;;;;;;18.50;16.00;;;;;;;;3724683;37;21041;-54
2021/04/07 06:00:23;;;;;;;;;18.75;17.50;;;;;;;;3724819;38;17908;-53
2021/04/07 06:02:48;;;;;;;;;19.00;17.25;;;;;;;;3724910;38;20907;-54
2021/04/07 06:05:14;;;;;;;;;22.00;19.50;;;;;;;;3724960;37;20950;-52
2021/04/07 06:07:41;;;;;;;;;19.50;18.75;;;;;;;;3724936;38;17892;-53
2021/04/07 06:10:08;;;;;;;;;14.25;13.00;;;;;;;;3724845;38;21075;-52
2021/04/07 06:12:34;;;;;;;;;10.50;10.25;;;;;;;;3724885;38;20995;-52
2021/04/07 06:14:59;;;;;;;;;15.25;14.75;;;;;;;;3724999;37;20917;-51
2021/04/07 06:17:25;;;;;;;;;15.25;14.50;;;;;;;;3724949;37;17880;-54
2021/04/07 06:19:51;;;;;;;;;17.50;15.00;;;;;;;;3724905;38;17868;-56
2021/04/07 06:22:17;;;;;;;;;12.25;11.00;;;;;;;;3724887;37;17897;-54
2021/04/07 06:24:43;;;;;;;;;16.50;16.50;;;;;;;;3724937;38;20903;-52
2021/04/07 06:27:09;;;;;;;;;2.75;2.75;;;;;;;;3724960;37;17859;-51
2021/04/07 06:29:35;;;;;;;;;16.25;14.50;;;;;;;;3724911;37;20912;-54
2021/04/07 06:32:01;;;;;;;;;14.25;14.00;;;;;;;;3724905;37;17857;-56
2021/04/07 06:34:26;;;;;;;;;10.25;10.00;;;;;;;;3725366;37;17865;-54
2021/04/07 06:36:52;;;;;;;;;20.50;14.25;;;;;;;;3725605;37;17856;-55
2021/04/07 06:39:18;;;;;;;;;15.75;15.75;;;;;;;;3725120;37;17832;-53
2021/04/07 06:41:44;;;;;;;;;13.00;12.25;;;;;;;;3724910;37;17856;-54
2021/04/07 06:44:10;;;;;;;;;17.00;13.25;;;;;;;;3725058;37;17821;-53
2021/04/07 06:46:36;;;;;;;;;18.00;16.25;;;;;;;;3724831;38;20994;-54
2021/04/07 06:49:02;;;;;;;;;15.50;13.75;;;;;;;;3724767;38;20923;-54
2021/04/07 06:51:28;;;;;;;;;17.00;17.00;;;;;;;;3724885;38;17837;-55
2021/04/07 06:53:54;;;;;;;;;14.75;14.00;;;;;;;;3724967;38;17821;-52
2021/04/07 06:56:20;;;;;;;;;16.00;15.75;;;;;;;;3724894;38;20871;-54
2021/04/07 06:58:46;;;;;;;;;13.75;13.75;;;;;;;;3724704;37;20898;-54
2021/04/07 07:01:12;;;;;;;;;19.50;15.50;;;;;;;;3724878;38;17835;-53
2021/04/07 07:03:37;;;;;;;;;15.00;15.00;;;;;;;;3724942;37;17826;-50
2021/04/07 07:06:04;;;;;;;;;14.00;14.00;;;;;;;;3724622;38;20902;-51
2021/04/07 07:08:31;;;;;;;;;23.75;18.00;;;;;;;;3724996;38;17798;-54
2021/04/07 07:11:08;;;;;;;;;23.00;20.75;;;;;;;;3724659;38;20909;-52
2021/04/07 07:13:34;;;;;;;;;9.00;7.50;;;;;;;;3725085;37;21001;-50
2021/04/07 07:16:00;;;;;;;;;22.25;21.25;;;;;;;;3724951;37;20883;-50
2021/04/07 07:18:26;;;;;;;;;17.75;15.25;;;;;;;;3724757;37;20881;-51
2021/04/07 07:20:53;;;;;;;;;18.25;17.75;;;;;;;;3724954;38;17812;-51
2021/04/07 07:23:23;;;;;;;;;26.25;21.75;;;;;;;;3724898;37;20876;-54
2021/04/07 07:26:00;;;;;;;;;11.75;10.00;;;;;;;;3724681;37;20882;-51
2021/04/07 07:28:27;;;;;;;;;20.00;19.00;;;;;;;;3724749;38;20818;-50
2021/04/07 07:30:53;;;;;;;;;18.50;15.50;;;;;;;;3724450;37;21045;-51
2021/04/07 07:33:20;;;;;;;;;29.50;24.50;;;;;;;;3724966;38;20841;-57
2021/04/07 07:35:46;;;;;;;;;20.00;18.25;;;;;;;;3724859;37;17783;-51
2021/04/07 07:38:19;;;;;;;;;19.75;15.75;;;;;;;;3724722;37;20869;-51
2021/04/07 07:40:46;;;;;;;;;27.25;21.75;;;;;;;;3724949;37;20868;-51
2021/04/07 07:43:11;;;;;;;;;22.00;21.25;;;;;;;;3724804;38;20930;-52
2021/04/07 07:45:40;;;;;;;;;15.50;13.25;;;;;;;;3724995;37;20865;-51
2021/04/07 07:48:11;;;;;;;;;12.50;12.50;;;;;;;;3724894;38;17746;-51
2021/04/07 07:50:44;;;;;;;;;12.25;12.00;;;;;;;;3725051;37;20799;-50
2021/04/07 07:53:17;;;;;;;;;7.00;7.00;;;;;;;;3724821;38;20829;-51
2021/04/07 07:55:44;;;;;;;;;8.00;7.75;;;;;;;;3725023;37;20689;-50
2021/04/07 07:58:10;;;;;;;;;13.25;9.75;;;;;;;;3724884;37;20686;-53
2021/04/07 08:00:36;;;;;;;;;7.25;7.25;;;;;;;;3724997;37;20796;-57
2021/04/07 08:03:08;;;;;;;;;9.25;2.50;;;;;;;;3724982;38;17742;-50
2021/04/07 08:05:35;;;;;;;;;5.00;3.50;;;;;;;;3725003;38;18027;-50
2021/04/07 08:08:02;;;;;;;;;13.25;11.25;;;;;;;;3724797;37;20688;-51
2021/04/07 08:10:29;;;;;;;;;6.00;5.00;;;;;;;;3725077;37;20755;-50
2021/04/07 08:12:55;;;;;;;;;8.75;7.50;;;;;;;;3724907;37;20684;-51
2021/04/07 08:15:20;;;;;;;;;9.00;7.50;;;;;;;;3724908;37;20655;-50
2021/04/07 08:17:46;;;;;;;;;5.75;5.75;;;;;;;;3724655;38;20684;-55
2021/04/07 08:20:12;;;;;;;;;10.00;7.25;;;;;;;;3725004;38;17729;-50
2021/04/07 08:22:38;;;;;;;;;12.25;10.75;;;;;;;;3724911;38;17730;-51
2021/04/07 08:25:07;;;;;;;;;12.25;8.50;;;;;;;;3724865;38;20832;-51
2021/04/07 08:27:36;;;;;;;;;7.75;6.50;;;;;;;;3724858;38;20635;-52
2021/04/07 08:30:04;;;;;;;;;4.25;2.50;;;;;;;;3724983;37;20639;-51
2021/04/07 08:32:30;;;;;;;;;15.00;9.50;;;;;;;;3724855;37;20649;-53
2021/04/07 08:34:56;;;;;;;;;8.25;6.50;;;;;;;;3724947;38;20680;-51
2021/04/07 08:37:26;;;;;;;;;12.00;9.50;;;;;;;;3724916;38;17692;-50
2021/04/07 08:39:51;;;;;;;;;16.00;13.75;;;;;;;;3725010;37;20675;-51
2021/04/07 08:42:17;;;;;;;;;28.75;18.75;;;;;;;;3725061;38;20706;-54
2021/04/07 08:44:46;;;;;;;;;10.00;10.00;;;;;;;;3724903;38;17680;-55
2021/04/07 08:50:12;;;;;;;;;14.00;12.50;;;;;;;;3724838;37;20749;-52
2021/04/07 08:52:48;;;;;;;;;14.00;14.00;;;;;;;;3724966;38;20703;-51
2021/04/07 08:55:19;;;;;;;;;12.00;10.75;;;;;;;;3725028;38;20755;-52
2021/04/07 08:57:57;;;;;;;;;10.75;7.75;;;;;;;;3724897;38;20692;-51
2021/04/07 09:00:25;;;;;;;;;2.75;1.75;;;;;;;;3724965;38;20756;-54
2021/04/07 09:02:52;;;;;;;;;9.00;9.00;;;;;;;;3724923;38;20626;-51
2021/04/07 09:05:28;;;;;;;;;10.00;9.25;;;;;;;;3725017;37;20588;-52
2021/04/07 09:07:55;;;;;;;;;17.00;15.00;;;;;;;;3725023;38;21590;-55
2021/04/07 09:10:22;;;;;;;;;14.25;12.75;;;;;;;;3725306;37;20746;-54
2021/04/07 09:12:51;;;;;;;;;14.25;14.25;;;;;;;;3725592;37;21009;-57
2021/04/07 09:15:18;;;;;;;;;17.00;16.50;;;;;;;;3724990;38;21718;-56
2021/04/07 09:17:48;;;;;;;;;6.75;5.75;;;;;;;;3724961;37;21721;-54
2021/04/07 09:20:32;;;;;;;;;12.25;11.50;;;;;;;;3724936;37;21531;-54
2021/04/07 09:23:37;;;;;;;;;16.50;14.75;;;;;;;;3724663;37;21774;-54
2021/04/07 09:26:08;;;;;;;;;12.50;11.00;;;;;;;;3724727;38;21830;-55
2021/04/07 09:28:56;;;;;;;;;20.00;17.50;;;;;;;;3724686;37;21359;-54
2021/04/07 09:31:41;;;;;;;;;6.75;6.75;;;;;;;;3724809;37;21715;-54
2021/04/07 09:34:06;;;;;;;;;14.25;13.50;;;;;;;;3724971;37;21591;-56
2021/04/07 09:36:36;;;;;;;;;12.25;11.75;;;;;;;;3724930;38;21661;-57
2021/04/07 09:39:06;;;;;;;;;10.00;9.00;;;;;;;;3724865;37;18621;-55
2021/04/07 09:41:35;;;;;;;;;6.00;6.00;;;;;;;;3724810;38;21576;-55
2021/04/07 09:44:04;;;;;;;;;11.25;10.75;;;;;;;;3724709;37;21549;-55
2021/04/07 09:46:30;;;;;;;;;16.00;12.75;;;;;;;;3724713;37;21639;-55
2021/04/07 09:48:59;;;;;;;;;5.25;5.25;;;;;;;;3724911;37;21314;-54
2021/04/07 09:51:26;;;;;;;;;9.25;7.50;;;;;;;;3724651;37;18607;-54
2021/04/07 09:53:53;;;;;;;;;16.25;15.00;;;;;;;;3724697;38;21541;-54
2021/04/07 09:56:19;;;;;;;;;9.75;8.00;;;;;;;;3724785;38;21678;-54
2021/04/07 09:58:47;;;;;;;;;6.50;6.50;;;;;;;;3724842;38;21536;-56
2021/04/07 10:01:14;;;;;;;;;6.00;5.25;;;;;;;;3725027;38;21511;-59
2021/04/07 10:03:47;;;;;;;;;13.75;13.50;;;;;;;;3725458;38;21515;-54
2021/04/07 10:06:25;;;;;;;;;7.50;5.25;;;;;;;;3725417;38;21642;-55
2021/04/07 10:09:11;;;;;;;;;13.25;12.25;;;;;;;;3725124;37;21530;-56
2021/04/07 10:11:38;;;;;;;;;7.00;7.00;;;;;;;;3725114;37;21665;-55
2021/04/07 10:14:14;;;;;;;;;7.00;7.00;;;;;;;;3725192;38;21567;-55
2021/04/07 10:16:40;;;;;;;;;7.00;7.00;;;;;;;;3725283;38;21507;-55
2021/04/07 10:19:07;;;;;;;;;7.75;7.00;;;;;;;;3725275;37;21587;-54
2021/04/07 10:21:33;;;;;;;;;17.00;15.25;;;;;;;;3724938;37;21584;-54
2021/04/07 10:23:59;;;;;;;;;10.25;10.00;;;;;;;;3725088;38;21643;-53
2021/04/07 10:26:26;;;;;;;;;9.25;9.00;;;;;;;;3725298;38;21519;-57
2021/04/07 10:28:58;;;;;;;;;9.75;8.75;;;;;;;;3725199;38;21571;-55
2021/04/07 10:31:24;;;;;;;;;12.25;12.25;;;;;;;;3725100;38;21470;-54
2021/04/07 10:34:02;;;;;;;;;7.00;6.50;;;;;;;;3725312;37;21573;-53
2021/04/07 10:36:28;;;;;;;;;10.75;7.75;;;;;;;;3725269;38;21497;-58
2021/04/07 10:38:54;;;;;;;;;6.25;6.25;;;;;;;;3725225;37;21513;-54
2021/04/07 10:41:24;;;;;;;;;6.00;6.00;;;;;;;;3724791;37;21502;-55
2021/04/07 10:43:50;;;;;;;;;6.75;6.75;;;;;;;;3725006;37;18520;-54
2021/04/07 10:46:15;;;;;;;;;7.25;7.25;;;;;;;;3725093;37;21461;-53
2021/04/07 10:48:41;;;;;;;;;6.00;6.00;;;;;;;;3725380;38;18535;-56
2021/04/07 10:51:08;;;;;;;;;11.75;9.75;;;;;;;;3725460;38;18512;-55
2021/04/07 10:53:39;;;;;;;;;5.25;2.00;;;;;;;;3725514;37;18525;-54
2021/04/07 10:56:15;;;;;;;;;6.75;5.25;;;;;;;;3725034;37;21477;-53
2021/04/07 10:58:42;;;;;;;;;2.75;2.50;;;;;;;;3725225;37;21468;-56
2021/04/07 11:01:08;;;;;;;;;6.25;6.25;;;;;;;;3724935;37;21438;-53
2021/04/07 11:03:33;;;;;;;;;5.00;2.00;;;;;;;;3724888;38;21452;-53
2021/04/07 11:05:59;;;;;;;;;0.50;0.50;;;;;;;;3724978;37;18495;-54
2021/04/07 11:08:36;;;;;;;;;2.25;2.00;;;;;;;;3724774;37;18498;-53
2021/04/07 11:11:02;;;;;;;;;1.25;0.50;;;;;;;;3724982;38;21461;-57
2021/04/07 11:13:28;;;;;;;;;1.25;1.00;;;;;;;;3724948;37;21437;-53
2021/04/07 11:15:56;;;;;;;;;4.50;2.75;;;;;;;;3724949;38;21526;-53
2021/04/07 11:18:29;;;;;;;;;2.50;2.50;;;;;;;;3725063;38;18503;-53
2021/04/07 11:20:55;;;;;;;;;1.00;1.00;;;;;;;;3724935;37;21427;-54
2021/04/07 11:23:20;;;;;;;;;4.00;2.00;;;;;;;;3724906;38;21428;-56
2021/04/07 11:25:47;;;;;;;;;5.50;5.50;;;;;;;;3724875;38;18485;-54
2021/04/07 11:28:16;;;;;;;;;3.00;2.00;;;;;;;;3724948;37;18481;-53
2021/04/07 11:30:54;;;;;;;;;6.00;6.00;;;;;;;;3724855;37;21422;-57
2021/04/07 11:33:25;;;;;;;;;1.75;1.00;;;;;;;;3725034;37;21418;-52
2021/04/07 11:38:59;;;;;;;;;2.25;2.25;;;;;;;;3724981;38;21453;-56
2021/04/07 11:46:55;;;;;;;;;2.75;2.00;;;;;;;;3725747;37;21420;-56
2021/04/07 11:49:21;;;;;;;;;4.25;4.25;;;;;;;;3726012;37;21420;-55
2021/04/07 11:51:47;;;;;;;;;2.25;2.25;;;;;;;;3724717;37;21367;-52
2021/04/07 11:54:14;;;;;;;;;9.25;6.00;;;;;;;;3726784;38;21481;-55
2021/04/07 11:56:44;;;;;;;;;5.50;5.25;;;;;;;;3724726;37;21380;-54
2021/04/07 11:59:17;;;;;;;;;6.50;6.50;;;;;;;;3724801;37;21401;-54
2021/04/07 12:01:44;;;;;;;;;7.50;6.50;;;;;;;;3724946;38;21380;-52
2021/04/07 12:04:09;;;;;;;;;6.00;4.00;;;;;;;;3724927;37;21389;-53
2021/04/07 12:06:35;;;;;;;;;7.50;6.75;;;;;;;;3724960;37;21346;-52
2021/04/07 12:09:01;;;;;;;;;8.00;7.00;;;;;;;;3724987;37;18426;-53
2021/04/07 12:11:27;;;;;;;;;8.00;7.50;;;;;;;;3724874;38;21361;-54
2021/04/07 12:14:00;;;;;;;;;5.25;5.00;;;;;;;;3725037;38;18430;-52
2021/04/07 12:16:25;;;;;;;;;2.25;2.25;;;;;;;;3724807;37;21352;-54
2021/04/07 12:18:51;;;;;;;;;5.00;5.00;;;;;;;;3724928;37;21360;-53
2021/04/07 12:21:17;;;;;;;;;7.00;7.00;;;;;;;;3724863;38;18385;-52
2021/04/07 12:23:44;;;;;;;;;3.75;3.75;;;;;;;;3724913;38;18409;-52
2021/04/07 12:26:11;;;;;;;;;2.50;2.50;;;;;;;;3724952;38;21353;-53
2021/04/07 12:28:38;;;;;;;;;4.50;3.75;;;;;;;;3724058;37;21357;-55
2021/04/07 12:31:04;;;;;;;;;1.75;1.00;;;;;;;;3723877;38;21385;-53
2021/04/07 12:33:30;;;;;;;;;3.75;3.75;;;;;;;;3724709;37;21292;-52
2021/04/07 12:35:58;;;;;;;;;9.00;4.00;;;;;;;;3724720;37;18371;-56
2021/04/07 12:38:25;;;;;;;;;5.75;5.00;;;;;;;;3724803;37;21334;-55
2021/04/07 12:40:56;;;;;;;;;8.75;4.25;;;;;;;;3724796;38;21311;-55
2021/04/07 12:43:22;;;;;;;;;7.00;6.75;;;;;;;;3725045;38;21311;-58
2021/04/07 12:45:48;;;;;;;;;6.25;5.50;;;;;;;;3724937;38;21319;-54
2021/04/07 12:48:14;;;;;;;;;9.00;6.75;;;;;;;;3724846;37;18349;-56
2021/04/07 12:50:41;;;;;;;;;2.25;2.25;;;;;;;;3724544;37;18367;-54
2021/04/07 12:53:07;;;;;;;;;6.75;6.00;;;;;;;;3724637;38;21416;-53
2021/04/07 12:55:33;;;;;;;;;12.25;11.50;;;;;;;;3724907;38;21281;-55
2021/04/07 12:57:59;;;;;;;;;10.50;8.00;;;;;;;;3724808;38;21387;-57
2021/04/07 13:00:26;;;;;;;;;7.00;7.00;;;;;;;;3725009;38;18333;-55
2021/04/07 13:02:51;;;;;;;;;6.75;6.00;;;;;;;;3724811;38;21296;-53
2021/04/07 13:05:17;;;;;;;;;6.75;6.75;;;;;;;;3724852;37;21271;-54
2021/04/07 13:07:45;;;;;;;;;10.00;8.50;;;;;;;;3724842;37;18340;-54
2021/04/07 13:10:12;;;;;;;;;9.00;8.50;;;;;;;;3724926;38;21275;-53
2021/04/07 13:12:37;;;;;;;;;14.75;13.00;;;;;;;;3725026;38;21300;-55
2021/04/07 13:15:04;;;;;;;;;5.00;3.00;;;;;;;;3725137;38;21393;-57
2021/04/07 13:17:29;;;;;;;;;6.00;4.25;;;;;;;;3724962;38;18353;-57
2021/04/07 13:19:57;;;;;;;;;12.25;10.00;;;;;;;;3724866;38;21290;-53
2021/04/07 13:22:23;;;;;;;;;17.00;14.25;;;;;;;;3725126;37;18316;-54
2021/04/07 13:24:48;;;;;;;;;13.25;12.50;;;;;;;;3724995;37;21401;-54
2021/04/07 13:27:14;;;;;;;;;15.25;12.00;;;;;;;;3724913;38;18340;-55
2021/04/07 13:29:40;;;;;;;;;23.25;20.00;;;;;;;;3724960;37;18290;-57
2021/04/07 13:32:07;;;;;;;;;27.75;23.75;;;;;;;;3724977;38;18306;-56
2021/04/07 13:34:50;;;;;;;;;19.75;18.25;;;;;;;;3724847;37;18320;-55
2021/04/07 13:37:22;;;;;;;;;15.50;13.00;;;;;;;;3724670;38;21335;-54
2021/04/07 13:40:00;;;;;;;;;19.00;17.75;;;;;;;;3724921;37;21325;-54
2021/04/07 13:45:09;;;;;;;;;25.50;20.50;;;;;;;;3724853;37;21440;-53
2021/04/07 13:47:37;;;;;;;;;20.50;19.75;;;;;;;;3724853;38;21376;-55
2021/04/07 13:50:03;;;;;;;;;20.75;19.00;;;;;;;;3724972;37;21383;-57
2021/04/07 13:52:29;;;;;;;;;19.75;19.00;;;;;;;;3724823;37;21386;-55
2021/04/07 13:54:55;;;;;;;;;19.00;16.75;;;;;;;;3724920;38;21375;-59
2021/04/07 13:57:28;;;;;;;;;15.75;14.00;;;;;;;;3725044;37;18274;-52
2021/04/07 13:59:54;;;;;;;;;15.25;14.00;;;;;;;;3724911;37;21306;-54
2021/04/07 14:02:20;;;;;;;;;11.50;10.75;;;;;;;;3725125;38;21343;-55
2021/04/07 14:04:46;;;;;;;;;19.00;17.50;;;;;;;;3725081;37;21290;-55
2021/04/07 14:07:15;;;;;;;;;17.50;13.75;;;;;;;;3724941;38;18257;-53
2021/04/07 14:09:42;;;;;;;;;10.50;8.25;;;;;;;;3724969;38;18282;-56
2021/04/07 14:12:08;;;;;;;;;12.25;10.00;;;;;;;;3725627;37;21240;-58
2021/04/07 14:14:33;;;;;;;;;14.00;13.25;;;;;;;;3724681;37;21284;-59
2021/04/07 14:16:59;;;;;;;;;14.25;10.75;;;;;;;;3725016;38;21273;-61
2021/04/07 14:19:25;;;;;;;;;14.50;12.50;;;;;;;;3725081;38;18252;-54
2021/04/07 14:21:51;;;;;;;;;15.00;13.50;;;;;;;;3725599;38;18254;-56
2021/04/07 14:24:17;;;;;;;;;16.25;13.00;;;;;;;;3725662;38;18234;-56
2021/04/07 14:26:42;;;;;;;;;7.75;5.00;;;;;;;;3725120;37;18253;-53
2021/04/07 14:29:08;;;;;;;;;19.25;17.00;;;;;;;;3724907;38;18225;-55
2021/04/07 14:31:34;;;;;;;;;14.00;12.00;;;;;;;;3724983;37;18249;-56
2021/04/07 14:34:01;;;;;;;;;12.00;11.00;;;;;;;;3724954;37;18230;-55
2021/04/07 14:36:27;;;;;;;;;12.75;9.25;;;;;;;;3724968;38;18231;-54
2021/04/07 14:38:53;;;;;;;;;16.00;13.75;;;;;;;;3724699;37;21279;-55
2021/04/07 14:41:19;;;;;;;;;16.25;13.00;;;;;;;;3724862;38;18218;-55
2021/04/07 14:43:44;;;;;;;;;12.75;10.75;;;;;;;;3725003;37;18219;-58
2021/04/07 14:46:12;;;;;;;;;18.00;13.75;;;;;;;;3724886;38;18227;-55